sensor_id;sensor_type;location;lat;lon;timestamp;pressure;altitude;pressure_sealevel;temperature;humidity
18819;BME280;9537;45.594;9.294;2022-07-29T00:00:48;99513.50;;;24.72;65.92
18819;BME280;9537;45.594;9.294;2022-07-29T00:01:49;99504.84;;;24.75;65.59
18819;BME280;9537;45.594;9.294;2022-07-29T00:02:53;99508.41;;;24.76;66.16
18819;BME280;9537;45.594;9.294;2022-07-29T00:03:54;99509.75;;;24.78;66.01
18819;BME280;9537;45.594;9.294;2022-07-29T00:04:56;99503.81;;;24.81;66.03
18819;BME280;9537;45.594;9.294;2022-07-29T00:05:57;99503.53;;;24.83;65.66
18819;BME280;9537;45.594;9.294;2022-07-29T00:07:00;99505.13;;;24.89;65.68
18819;BME280;9537;45.594;9.294;2022-07-29T00:08:01;99505.41;;;24.87;65.26
18819;BME280;9537;45.594;9.294;2022-07-29T00:09:04;99498.38;;;24.86;65.22
18819;BME280;9537;45.594;9.294;2022-07-29T00:10:05;99499.72;;;24.89;65.42
18819;BME280;9537;45.594;9.294;2022-07-29T00:11:07;99498.13;;;24.83;65.49
18819;BME280;9537;45.594;9.294;2022-07-29T00:12:08;99504.88;;;24.85;65.63
18819;BME280;9537;45.594;9.294;2022-07-29T00:13:10;99498.66;;;24.85;65.18
18819;BME280;9537;45.594;9.294;2022-07-29T00:14:11;99502.72;;;24.87;65.15
18819;BME280;9537;45.594;9.294;2022-07-29T00:15:15;99494.31;;;24.89;64.75
18819;BME280;9537;45.594;9.294;2022-07-29T00:16:16;99494.06;;;24.85;65.18
18819;BME280;9537;45.594;9.294;2022-07-29T00:17:18;99490.56;;;24.80;65.43
18819;BME280;9537;45.594;9.294;2022-07-29T00:18:18;99492.44;;;24.79;64.86
18819;BME280;9537;45.594;9.294;2022-07-29T00:19:20;99490.56;;;24.75;65.03
18819;BME280;9537;45.594;9.294;2022-07-29T00:39:47;99492.44;;;24.54;66.39
18819;BME280;9537;45.594;9.294;2022-07-29T00:40:48;99490.03;;;24.47;66.57
18819;BME280;9537;45.594;9.294;2022-07-29T00:41:50;99490.53;;;24.49;66.59
18819;BME280;9537;45.594;9.294;2022-07-29T00:42:51;99488.34;;;24.41;67.27
18819;BME280;9537;45.594;9.294;2022-07-29T00:43:53;99480.81;;;24.43;67.28
18819;BME280;9537;45.594;9.294;2022-07-29T00:44:55;99484.81;;;24.40;67.52
18819;BME280;9537;45.594;9.294;2022-07-29T00:45:56;99487.00;;;24.33;67.76
18819;BME280;9537;45.594;9.294;2022-07-29T00:46:58;99492.63;;;24.26;68.17
18819;BME280;9537;45.594;9.294;2022-07-29T00:47:59;99484.00;;;24.24;67.97
18819;BME280;9537;45.594;9.294;2022-07-29T00:49:01;99491.81;;;24.26;67.83
18819;BME280;9537;45.594;9.294;2022-07-29T00:50:04;99490.47;;;24.28;68.14
18819;BME280;9537;45.594;9.294;2022-07-29T00:51:07;99493.97;;;24.29;68.19
18819;BME280;9537;45.594;9.294;2022-07-29T00:52:11;99496.69;;;24.29;68.50
18819;BME280;9537;45.594;9.294;2022-07-29T00:53:12;99495.34;;;24.32;68.67
18819;BME280;9537;45.594;9.294;2022-07-29T00:54:14;99489.94;;;24.32;68.87
18819;BME280;9537;45.594;9.294;2022-07-29T00:55:17;99495.88;;;24.28;68.81
18819;BME280;9537;45.594;9.294;2022-07-29T00:56:19;99496.44;;;24.31;68.79
18819;BME280;9537;45.594;9.294;2022-07-29T00:57:20;99492.94;;;24.30;69.03
18819;BME280;9537;45.594;9.294;2022-07-29T00:58:22;99499.94;;;24.31;69.08
18819;BME280;9537;45.594;9.294;2022-07-29T00:59:25;99499.94;;;24.31;69.45
18819;BME280;9537;45.594;9.294;2022-07-29T01:00:28;99507.47;;;24.29;69.66
18819;BME280;9537;45.594;9.294;2022-07-29T01:01:30;99500.19;;;24.35;69.28
18819;BME280;9537;45.594;9.294;2022-07-29T01:02:32;99496.72;;;24.39;69.72
18819;BME280;9537;45.594;9.294;2022-07-29T01:03:34;99499.94;;;24.36;69.38
18819;BME280;9537;45.594;9.294;2022-07-29T01:04:35;99498.88;;;24.42;69.12
18819;BME280;9537;45.594;9.294;2022-07-29T01:05:37;99496.19;;;24.42;69.59
18819;BME280;9537;45.594;9.294;2022-07-29T01:06:42;99495.13;;;24.43;69.62
18819;BME280;9537;45.594;9.294;2022-07-29T01:07:44;99498.88;;;24.42;69.68
18819;BME280;9537;45.594;9.294;2022-07-29T01:08:47;99496.44;;;24.41;69.86
18819;BME280;9537;45.594;9.294;2022-07-29T01:09:49;99497.28;;;24.41;69.78
18819;BME280;9537;45.594;9.294;2022-07-29T01:10:54;99500.19;;;24.35;69.44
18819;BME280;9537;45.594;9.294;2022-07-29T01:11:57;99497.50;;;24.35;68.97
18819;BME280;9537;45.594;9.294;2022-07-29T01:13:01;99503.72;;;24.25;69.26
18819;BME280;9537;45.594;9.294;2022-07-29T01:14:05;99500.72;;;24.26;68.83
18819;BME280;9537;45.594;9.294;2022-07-29T01:15:08;99499.69;;;24.33;68.53
18819;BME280;9537;45.594;9.294;2022-07-29T01:16:25;99489.94;;;24.32;68.75
18819;BME280;9537;45.594;9.294;2022-07-29T01:17:33;99489.97;;;24.37;68.57
18819;BME280;9537;45.594;9.294;2022-07-29T01:18:40;99489.97;;;24.42;68.83
18819;BME280;9537;45.594;9.294;2022-07-29T01:19:48;99493.72;;;24.41;69.25
18819;BME280;9537;45.594;9.294;2022-07-29T01:21:21;99492.66;;;24.42;69.49
18819;BME280;9537;45.594;9.294;2022-07-29T01:22:38;99487.28;;;24.42;69.52
18819;BME280;9537;45.594;9.294;2022-07-29T01:23:56;99488.13;;;24.47;69.35
18819;BME280;9537;45.594;9.294;2022-07-29T01:25:19;99487.28;;;24.52;68.92
18819;BME280;9537;45.594;9.294;2022-07-29T01:26:34;99490.53;;;24.49;68.80
18819;BME280;9537;45.594;9.294;2022-07-29T01:27:51;99479.75;;;24.49;69.07
18819;BME280;9537;45.594;9.294;2022-07-29T01:29:05;99484.59;;;24.52;69.05
18819;BME280;9537;45.594;9.294;2022-07-29T01:30:07;99473.00;;;24.52;68.80
18819;BME280;9537;45.594;9.294;2022-07-29T01:31:10;99480.56;;;24.49;68.81
18819;BME280;9537;45.594;9.294;2022-07-29T01:32:14;99472.72;;;24.43;69.35
18819;BME280;9537;45.594;9.294;2022-07-29T01:33:17;99478.66;;;24.45;69.07
18819;BME280;9537;45.594;9.294;2022-07-29T01:34:50;99479.75;;;24.44;69.57
18819;BME280;9537;45.594;9.294;2022-07-29T01:35:54;99476.47;;;24.42;69.67
18819;BME280;9537;45.594;9.294;2022-07-29T01:37:01;99474.88;;;24.46;69.64
18819;BME280;9537;45.594;9.294;2022-07-29T01:38:10;99475.97;;;24.45;69.40
18819;BME280;9537;45.594;9.294;2022-07-29T01:39:17;99478.91;;;24.43;68.88
18819;BME280;9537;45.594;9.294;2022-07-29T01:40:23;99477.53;;;24.41;68.66
18819;BME280;9537;45.594;9.294;2022-07-29T01:41:28;99477.56;;;24.36;68.79
18819;BME280;9537;45.594;9.294;2022-07-29T01:42:34;99475.38;;;24.38;68.62
18819;BME280;9537;45.594;9.294;2022-07-29T01:43:41;99478.06;;;24.38;68.48
18819;BME280;9537;45.594;9.294;2022-07-29T01:44:50;99483.19;;;24.29;68.34
18819;BME280;9537;45.594;9.294;2022-07-29T01:45:57;99474.81;;;24.20;68.57
18819;BME280;9537;45.594;9.294;2022-07-29T01:47:05;99486.94;;;24.18;68.98
18819;BME280;9537;45.594;9.294;2022-07-29T01:48:16;99475.06;;;24.14;68.91
18819;BME280;9537;45.594;9.294;2022-07-29T01:49:22;99480.47;;;24.14;68.94
18819;BME280;9537;45.594;9.294;2022-07-29T01:50:30;99476.44;;;24.16;68.91
18819;BME280;9537;45.594;9.294;2022-07-29T01:51:40;99479.94;;;24.17;69.25
18819;BME280;9537;45.594;9.294;2022-07-29T01:52:45;99483.44;;;24.17;69.41
18819;BME280;9537;45.594;9.294;2022-07-29T01:53:54;99483.44;;;24.17;68.98
18819;BME280;9537;45.594;9.294;2022-07-29T01:54:57;99486.41;;;24.16;69.13
18819;BME280;9537;45.594;9.294;2022-07-29T01:56:01;99485.63;;;24.15;68.92
18819;BME280;9537;45.594;9.294;2022-07-29T01:57:03;99481.25;;;24.09;69.07
18819;BME280;9537;45.594;9.294;2022-07-29T01:58:06;99482.31;;;24.03;69.36
18819;BME280;9537;45.594;9.294;2022-07-29T01:59:09;99489.91;;;24.01;69.47
18819;BME280;9537;45.594;9.294;2022-07-29T02:00:14;99484.72;;;23.94;69.87
18819;BME280;9537;45.594;9.294;2022-07-29T02:01:16;99487.41;;;23.94;70.09
18819;BME280;9537;45.594;9.294;2022-07-29T02:02:20;99485.78;;;23.88;70.44
18819;BME280;9537;45.594;9.294;2022-07-29T02:03:23;99485.53;;;23.90;70.53
18819;BME280;9537;45.594;9.294;2022-07-29T02:04:26;99485.53;;;23.90;70.87
18819;BME280;9537;45.594;9.294;2022-07-29T02:05:29;99489.84;;;23.91;70.83
18819;BME280;9537;45.594;9.294;2022-07-29T02:06:33;99487.69;;;23.93;70.53
18819;BME280;9537;45.594;9.294;2022-07-29T02:07:36;99490.13;;;23.94;70.64
18819;BME280;9537;45.594;9.294;2022-07-29T02:08:40;99496.03;;;23.91;70.81
18819;BME280;9537;45.594;9.294;2022-07-29T02:09:42;99496.84;;;23.92;70.79
18819;BME280;9537;45.594;9.294;2022-07-29T02:10:46;99502.53;;;23.90;70.87
18819;BME280;9537;45.594;9.294;2022-07-29T02:11:50;99498.19;;;23.84;71.16
18819;BME280;9537;45.594;9.294;2022-07-29T02:12:56;99508.97;;;23.84;71.23
18819;BME280;9537;45.594;9.294;2022-07-29T02:13:58;99500.88;;;23.89;71.42
18819;BME280;9537;45.594;9.294;2022-07-29T02:15:04;99508.69;;;23.86;71.36
18819;BME280;9537;45.594;9.294;2022-07-29T02:16:08;99503.59;;;23.84;71.52
18819;BME280;9537;45.594;9.294;2022-07-29T02:17:12;99496.03;;;23.86;71.45
18819;BME280;9537;45.594;9.294;2022-07-29T02:18:15;99500.88;;;23.89;71.55
18819;BME280;9537;45.594;9.294;2022-07-29T02:19:21;99500.38;;;23.92;71.29
18819;BME280;9537;45.594;9.294;2022-07-29T02:20:25;99505.53;;;23.99;70.96
18819;BME280;9537;45.594;9.294;2022-07-29T02:21:29;99501.72;;;23.95;70.92
18819;BME280;9537;45.594;9.294;2022-07-29T02:22:33;99503.34;;;23.96;70.39
18819;BME280;9537;45.594;9.294;2022-07-29T02:23:38;99497.97;;;23.96;70.78
18819;BME280;9537;45.594;9.294;2022-07-29T02:24:41;99498.47;;;23.98;70.53
18819;BME280;9537;45.594;9.294;2022-07-29T02:25:43;99492.84;;;23.99;70.69
18819;BME280;9537;45.594;9.294;2022-07-29T02:26:47;99489.34;;;23.99;70.15
18819;BME280;9537;45.594;9.294;2022-07-29T02:27:50;99496.88;;;23.97;70.32
18819;BME280;9537;45.594;9.294;2022-07-29T02:28:55;99488.53;;;24.03;70.20
18819;BME280;9537;45.594;9.294;2022-07-29T02:29:58;99488.53;;;24.03;69.99
18819;BME280;9537;45.594;9.294;2022-07-29T02:31:03;99492.31;;;24.02;70.18
18819;BME280;9537;45.594;9.294;2022-07-29T02:32:09;99480.44;;;23.98;70.14
18819;BME280;9537;45.594;9.294;2022-07-29T02:33:14;99486.88;;;23.97;70.42
18819;BME280;9537;45.594;9.294;2022-07-29T02:34:17;99490.94;;;24.00;70.35
18819;BME280;9537;45.594;9.294;2022-07-29T02:35:21;99492.03;;;23.99;70.38
18819;BME280;9537;45.594;9.294;2022-07-29T02:36:23;99490.94;;;24.00;69.86
18819;BME280;9537;45.594;9.294;2022-07-29T02:37:26;99491.22;;;24.03;69.62
18819;BME280;9537;45.594;9.294;2022-07-29T02:38:28;99495.00;;;24.02;69.84
18819;BME280;9537;45.594;9.294;2022-07-29T02:39:51;99489.34;;;23.99;70.50
18819;BME280;9537;45.594;9.294;2022-07-29T02:40:55;99490.41;;;23.98;70.62
18819;BME280;9537;45.594;9.294;2022-07-29T02:42:02;99494.72;;;23.94;71.01
18819;BME280;9537;45.594;9.294;2022-07-29T02:43:06;99491.47;;;23.92;70.82
18819;BME280;9537;45.594;9.294;2022-07-29T02:44:10;99489.31;;;23.94;70.98
18819;BME280;9537;45.594;9.294;2022-07-29T02:45:13;99488.22;;;23.95;71.03
18819;BME280;9537;45.594;9.294;2022-07-29T02:46:17;99490.69;;;23.96;70.92
18819;BME280;9537;45.594;9.294;2022-07-29T02:47:24;99501.72;;;23.95;70.94
18819;BME280;9537;45.594;9.294;2022-07-29T02:48:36;99497.69;;;23.97;70.68
18819;BME280;9537;45.594;9.294;2022-07-29T02:49:42;99499.84;;;23.95;70.78
18819;BME280;9537;45.594;9.294;2022-07-29T02:50:50;99496.34;;;24.00;71.02
18819;BME280;9537;45.594;9.294;2022-07-29T02:51:56;99507.41;;;23.98;70.79
18819;BME280;9537;45.594;9.294;2022-07-29T02:53:02;99506.31;;;23.94;70.73
18819;BME280;9537;45.594;9.294;2022-07-29T02:54:07;99501.72;;;23.95;70.61
18819;BME280;9537;45.594;9.294;2022-07-29T02:55:15;99499.56;;;23.92;71.15
18819;BME280;9537;45.594;9.294;2022-07-29T02:56:23;99492.78;;;23.89;70.83
18819;BME280;9537;45.594;9.294;2022-07-29T02:57:31;99493.88;;;23.88;70.87
18819;BME280;9537;45.594;9.294;2022-07-29T02:58:38;99496.56;;;23.88;70.70
18819;BME280;9537;45.594;9.294;2022-07-29T02:59:41;99500.88;;;23.84;70.91
18819;BME280;9537;45.594;9.294;2022-07-29T03:00:46;99497.91;;;23.86;70.97
18819;BME280;9537;45.594;9.294;2022-07-29T03:01:49;99499.25;;;23.83;70.95
18819;BME280;9537;45.594;9.294;2022-07-29T03:02:58;99497.88;;;23.80;71.08
18819;BME280;9537;45.594;9.294;2022-07-29T03:04:01;99500.06;;;23.78;71.28
18819;BME280;9537;45.594;9.294;2022-07-29T03:05:07;99501.13;;;23.77;71.35
18819;BME280;9537;45.594;9.294;2022-07-29T03:06:12;99499.53;;;23.81;71.00
18819;BME280;9537;45.594;9.294;2022-07-29T03:07:15;99502.75;;;23.78;71.36
18819;BME280;9537;45.594;9.294;2022-07-29T03:08:20;99494.66;;;23.78;71.11
18819;BME280;9537;45.594;9.294;2022-07-29T03:09:22;99500.88;;;23.79;71.27
18819;BME280;9537;45.594;9.294;2022-07-29T03:10:26;99502.44;;;23.75;71.50
18819;BME280;9537;45.594;9.294;2022-07-29T03:11:27;99494.91;;;23.77;71.52
18819;BME280;9537;45.594;9.294;2022-07-29T03:12:31;99495.19;;;23.75;71.24
18819;BME280;9537;45.594;9.294;2022-07-29T03:13:33;99496.56;;;23.78;70.75
18819;BME280;9537;45.594;9.294;2022-07-29T03:14:35;99494.66;;;23.78;70.89
18819;BME280;9537;45.594;9.294;2022-07-29T03:15:39;99496.28;;;23.79;70.81
18819;BME280;9537;45.594;9.294;2022-07-29T03:16:40;99502.22;;;23.81;70.91
18819;BME280;9537;45.594;9.294;2022-07-29T03:17:43;99499.78;;;23.80;70.81
18819;BME280;9537;45.594;9.294;2022-07-29T03:18:47;99500.34;;;23.82;70.70
18819;BME280;9537;45.594;9.294;2022-07-29T03:19:49;99503.81;;;23.77;70.51
18819;BME280;9537;45.594;9.294;2022-07-29T03:20:51;99498.13;;;23.74;70.18
18819;BME280;9537;45.594;9.294;2022-07-29T03:21:52;99498.94;;;23.74;70.10
18819;BME280;9537;45.594;9.294;2022-07-29T03:22:56;99497.06;;;23.75;70.33
18819;BME280;9537;45.594;9.294;2022-07-29T03:23:57;99499.75;;;23.75;70.36
18819;BME280;9537;45.594;9.294;2022-07-29T03:25:07;99498.66;;;23.71;69.93
18819;BME280;9537;45.594;9.294;2022-07-29T03:26:09;99498.94;;;23.74;70.07
18819;BME280;9537;45.594;9.294;2022-07-29T03:27:10;99501.38;;;23.71;70.04
18819;BME280;9537;45.594;9.294;2022-07-29T03:28:14;99501.66;;;23.79;69.09
18819;BME280;9537;45.594;9.294;2022-07-29T03:29:14;99505.44;;;23.78;69.18
18819;BME280;9537;45.594;9.294;2022-07-29T03:30:17;99505.16;;;23.80;69.23
18819;BME280;9537;45.594;9.294;2022-07-29T03:31:17;99505.44;;;23.78;69.11
18819;BME280;9537;45.594;9.294;2022-07-29T03:32:19;99512.69;;;23.73;69.39
18819;BME280;9537;45.594;9.294;2022-07-29T03:33:21;99510.75;;;23.68;69.37
18819;BME280;9537;45.594;9.294;2022-07-29T03:34:24;99517.75;;;23.64;69.45
18819;BME280;9537;45.594;9.294;2022-07-29T03:35:26;99511.28;;;23.65;69.75
18819;BME280;9537;45.594;9.294;2022-07-29T03:36:27;99521.78;;;23.61;69.59
18819;BME280;9537;45.594;9.294;2022-07-29T03:37:29;99518.28;;;23.61;69.58
18819;BME280;9537;45.594;9.294;2022-07-29T03:38:33;99525.25;;;23.57;69.83
18819;BME280;9537;45.594;9.294;2022-07-29T03:39:39;99519.84;;;23.57;69.71
18819;BME280;9537;45.594;9.294;2022-07-29T03:40:46;99517.69;;;23.54;69.91
18819;BME280;9537;45.594;9.294;2022-07-29T03:41:49;99519.03;;;23.51;70.18
18819;BME280;9537;45.594;9.294;2022-07-29T03:42:53;99511.22;;;23.50;70.52
18819;BME280;9537;45.594;9.294;2022-07-29T03:43:55;99505.81;;;23.55;70.17
18819;BME280;9537;45.594;9.294;2022-07-29T03:45:00;99512.56;;;23.57;70.01
18819;BME280;9537;45.594;9.294;2022-07-29T03:46:03;99504.78;;;23.56;69.72
18819;BME280;9537;45.594;9.294;2022-07-29T03:47:09;99497.25;;;23.58;69.83
18819;BME280;9537;45.594;9.294;2022-07-29T03:48:13;99499.66;;;23.59;69.88
18819;BME280;9537;45.594;9.294;2022-07-29T03:49:16;99501.03;;;23.62;69.98
18819;BME280;9537;45.594;9.294;2022-07-29T03:50:20;99500.47;;;23.60;69.94
18819;BME280;9537;45.594;9.294;2022-07-29T03:51:23;99496.72;;;23.61;69.72
18819;BME280;9537;45.594;9.294;2022-07-29T03:52:24;99485.66;;;23.63;69.90
18819;BME280;9537;45.594;9.294;2022-07-29T03:53:26;99489.16;;;23.63;69.65
18819;BME280;9537;45.594;9.294;2022-07-29T03:54:27;99490.50;;;23.60;69.67
18819;BME280;9537;45.594;9.294;2022-07-29T03:55:33;99484.88;;;23.67;69.77
18819;BME280;9537;45.594;9.294;2022-07-29T03:56:38;99483.78;;;23.68;69.45
18819;BME280;9537;45.594;9.294;2022-07-29T03:57:42;99486.50;;;23.68;69.53
18819;BME280;9537;45.594;9.294;2022-07-29T03:58:44;99486.50;;;23.68;69.61
18819;BME280;9537;45.594;9.294;2022-07-29T03:59:46;99491.88;;;23.68;69.84
18819;BME280;9537;45.594;9.294;2022-07-29T04:00:48;99484.88;;;23.67;69.93
18819;BME280;9537;45.594;9.294;2022-07-29T04:01:51;99489.47;;;23.67;70.14
18819;BME280;9537;45.594;9.294;2022-07-29T04:02:55;99483.22;;;23.66;70.21
18819;BME280;9537;45.594;9.294;2022-07-29T04:03:57;99494.03;;;23.66;70.28
18819;BME280;9537;45.594;9.294;2022-07-29T04:04:58;99491.88;;;23.68;69.80
18819;BME280;9537;45.594;9.294;2022-07-29T04:06:03;99487.00;;;23.65;69.89
18819;BME280;9537;45.594;9.294;2022-07-29T04:07:06;99495.16;;;23.70;69.90
18819;BME280;9537;45.594;9.294;2022-07-29T04:08:08;99492.50;;;23.75;69.84
18819;BME280;9537;45.594;9.294;2022-07-29T04:09:09;99492.50;;;23.75;69.43
18819;BME280;9537;45.594;9.294;2022-07-29T04:10:11;99504.34;;;23.74;69.68
18819;BME280;9537;45.594;9.294;2022-07-29T04:11:12;99498.66;;;23.71;69.74
18819;BME280;9537;45.594;9.294;2022-07-29T04:12:15;99505.63;;;23.67;69.75
18819;BME280;9537;45.594;9.294;2022-07-29T04:13:16;99503.19;;;23.65;69.83
18819;BME280;9537;45.594;9.294;2022-07-29T04:14:18;99503.97;;;23.60;70.10
18819;BME280;9537;45.594;9.294;2022-07-29T04:15:19;99510.16;;;23.56;70.25
18819;BME280;9537;45.594;9.294;2022-07-29T04:16:24;99509.88;;;23.57;70.27
18819;BME280;9537;45.594;9.294;2022-07-29T04:17:25;99504.78;;;23.56;70.36
18819;BME280;9537;45.594;9.294;2022-07-29T04:18:27;99494.78;;;23.56;70.57
18819;BME280;9537;45.594;9.294;2022-07-29T04:19:28;99492.09;;;23.56;70.74
18819;BME280;9537;45.594;9.294;2022-07-29T04:20:30;99492.66;;;23.58;70.42
18819;BME280;9537;45.594;9.294;2022-07-29T04:21:36;99491.56;;;23.59;70.80
18819;BME280;9537;45.594;9.294;2022-07-29T04:22:39;99489.16;;;23.58;71.30
18819;BME280;9537;45.594;9.294;2022-07-29T04:23:39;99487.78;;;23.60;71.48
18819;BME280;9537;45.594;9.294;2022-07-29T04:24:41;99498.31;;;23.62;71.43
18819;BME280;9537;45.594;9.294;2022-07-29T04:25:42;99502.63;;;23.63;71.32
18819;BME280;9537;45.594;9.294;2022-07-29T04:26:45;99503.72;;;23.62;71.29
18819;BME280;9537;45.594;9.294;2022-07-29T04:27:46;99508.56;;;23.60;70.85
18819;BME280;9537;45.594;9.294;2022-07-29T04:29:03;99526.34;;;23.56;70.90
18819;BME280;9537;45.594;9.294;2022-07-29T04:30:05;99528.13;;;23.40;71.37
18819;BME280;9537;45.594;9.294;2022-07-29T04:31:07;99536.28;;;23.50;71.06
18819;BME280;9537;45.594;9.294;2022-07-29T04:32:08;99542.19;;;23.47;71.22
18819;BME280;9537;45.594;9.294;2022-07-29T04:33:10;99540.03;;;23.44;71.38
18819;BME280;9537;45.594;9.294;2022-07-29T04:34:12;99533.84;;;23.49;71.17
18819;BME280;9537;45.594;9.294;2022-07-29T04:35:14;99545.97;;;23.51;71.04
18819;BME280;9537;45.594;9.294;2022-07-29T04:36:15;99538.97;;;23.50;71.11
18819;BME280;9537;45.594;9.294;2022-07-29T04:37:19;99534.38;;;23.51;71.03
18819;BME280;9537;45.594;9.294;2022-07-29T04:38:19;99530.38;;;23.53;70.80
18819;BME280;9537;45.594;9.294;2022-07-29T04:39:22;99529.81;;;23.51;70.72
18819;BME280;9537;45.594;9.294;2022-07-29T04:40:23;99533.06;;;23.53;70.94
18819;BME280;9537;45.594;9.294;2022-07-29T04:41:25;99522.00;;;23.50;70.90
18819;BME280;9537;45.594;9.294;2022-07-29T04:42:26;99526.06;;;23.52;70.85
18819;BME280;9537;45.594;9.294;2022-07-29T04:43:28;99530.91;;;23.55;70.77
18819;BME280;9537;45.594;9.294;2022-07-29T04:44:29;99519.06;;;23.56;70.51
18819;BME280;9537;45.594;9.294;2022-07-29T04:45:31;99523.13;;;23.59;70.69
18819;BME280;9537;45.594;9.294;2022-07-29T04:46:33;99521.78;;;23.61;70.39
18819;BME280;9537;45.594;9.294;2022-07-29T04:47:36;99526.38;;;23.66;70.07
18819;BME280;9537;45.594;9.294;2022-07-29T04:48:37;99524.50;;;23.67;69.51
18819;BME280;9537;45.594;9.294;2022-07-29T04:49:39;99531.75;;;23.66;69.94
18819;BME280;9537;45.594;9.294;2022-07-29T04:50:40;99529.06;;;23.66;70.00
18819;BME280;9537;45.594;9.294;2022-07-29T04:51:42;99538.53;;;23.64;70.58
18819;BME280;9537;45.594;9.294;2022-07-29T04:52:45;99532.28;;;23.63;70.52
18819;BME280;9537;45.594;9.294;2022-07-29T04:53:46;99532.25;;;23.53;71.26
18819;BME280;9537;45.594;9.294;2022-07-29T04:54:48;99529.56;;;23.53;71.30
18819;BME280;9537;45.594;9.294;2022-07-29T04:55:50;99534.66;;;23.54;71.44
18819;BME280;9537;45.594;9.294;2022-07-29T04:56:51;99537.94;;;23.56;70.95
18819;BME280;9537;45.594;9.294;2022-07-29T04:57:54;99537.38;;;23.54;70.84
18819;BME280;9537;45.594;9.294;2022-07-29T04:58:55;99540.06;;;23.54;70.76
18819;BME280;9537;45.594;9.294;2022-07-29T04:59:57;99537.66;;;23.53;70.83
18819;BME280;9537;45.594;9.294;2022-07-29T05:00:58;99540.34;;;23.53;70.56
18819;BME280;9537;45.594;9.294;2022-07-29T05:02:00;99536.81;;;23.47;71.01
18819;BME280;9537;45.594;9.294;2022-07-29T05:03:01;99542.22;;;23.52;70.87
18819;BME280;9537;45.594;9.294;2022-07-29T05:04:03;99541.72;;;23.60;70.99
18819;BME280;9537;45.594;9.294;2022-07-29T05:05:04;99535.47;;;23.55;71.49
18819;BME280;9537;45.594;9.294;2022-07-29T05:06:06;99540.88;;;23.55;71.83
18819;BME280;9537;45.594;9.294;2022-07-29T05:07:07;99547.91;;;23.56;71.68
18819;BME280;9537;45.594;9.294;2022-07-29T05:08:11;99548.97;;;23.55;71.47
18819;BME280;9537;45.594;9.294;2022-07-29T05:09:13;99543.56;;;23.55;70.60
18819;BME280;9537;45.594;9.294;2022-07-29T05:10:14;99544.13;;;23.57;70.66
18819;BME280;9537;45.594;9.294;2022-07-29T05:11:16;99544.41;;;23.55;70.67
18819;BME280;9537;45.594;9.294;2022-07-29T05:12:17;99547.09;;;23.55;70.84
18819;BME280;9537;45.594;9.294;2022-07-29T05:13:19;99537.94;;;23.56;71.08
18819;BME280;9537;45.594;9.294;2022-07-29T05:14:20;99538.72;;;23.57;71.59
18819;BME280;9537;45.594;9.294;2022-07-29T05:15:22;99549.78;;;23.60;71.69
18819;BME280;9537;45.594;9.294;2022-07-29T05:16:23;99552.50;;;23.60;72.18
18819;BME280;9537;45.594;9.294;2022-07-29T05:17:25;99555.19;;;23.60;72.29
18819;BME280;9537;45.594;9.294;2022-07-29T05:18:26;99555.50;;;23.64;72.14
18819;BME280;9537;45.594;9.294;2022-07-29T05:19:28;99560.91;;;23.64;72.53
18819;BME280;9537;45.594;9.294;2022-07-29T05:20:30;99559.81;;;23.65;72.51
18819;BME280;9537;45.594;9.294;2022-07-29T05:21:33;99554.97;;;23.67;72.95
18819;BME280;9537;45.594;9.294;2022-07-29T05:22:34;99562.25;;;23.67;73.14
18819;BME280;9537;45.594;9.294;2022-07-29T05:23:37;99560.38;;;23.67;73.35
18819;BME280;9537;45.594;9.294;2022-07-29T05:24:38;99560.09;;;23.69;73.51
18819;BME280;9537;45.594;9.294;2022-07-29T05:25:41;99566.88;;;23.71;73.45
18819;BME280;9537;45.594;9.294;2022-07-29T05:26:42;99568.53;;;23.72;73.45
18819;BME280;9537;45.594;9.294;2022-07-29T05:27:44;99574.44;;;23.74;73.79
18819;BME280;9537;45.594;9.294;2022-07-29T05:28:46;99574.19;;;23.76;73.91
18819;BME280;9537;45.594;9.294;2022-07-29T05:29:47;99578.25;;;23.78;73.96
18819;BME280;9537;45.594;9.294;2022-07-29T05:30:49;99576.91;;;23.76;74.28
18819;BME280;9537;45.594;9.294;2022-07-29T05:31:50;99574.75;;;23.78;74.30
18819;BME280;9537;45.594;9.294;2022-07-29T05:32:53;99575.84;;;23.82;74.53
18819;BME280;9537;45.594;9.294;2022-07-29T05:33:54;99576.66;;;23.82;74.86
18819;BME280;9537;45.594;9.294;2022-07-29T05:34:56;99582.59;;;23.85;74.99
18819;BME280;9537;45.594;9.294;2022-07-29T05:35:57;99585.03;;;23.86;75.19
18819;BME280;9537;45.594;9.294;2022-07-29T05:36:59;99580.19;;;23.88;75.04
18819;BME280;9537;45.594;9.294;2022-07-29T05:38:00;99584.25;;;23.91;74.81
18819;BME280;9537;45.594;9.294;2022-07-29T05:39:04;99585.06;;;23.91;74.61
18819;BME280;9537;45.594;9.294;2022-07-29T05:40:06;99580.22;;;23.93;74.32
18819;BME280;9537;45.594;9.294;2022-07-29T05:41:08;99581.81;;;23.94;74.38
18819;BME280;9537;45.594;9.294;2022-07-29T05:42:10;99585.88;;;23.97;73.72
18819;BME280;9537;45.594;9.294;2022-07-29T05:43:12;99583.47;;;24.00;73.88
18819;BME280;9537;45.594;9.294;2022-07-29T05:44:14;99579.72;;;24.01;73.95
18819;BME280;9537;45.594;9.294;2022-07-29T05:45:15;99579.75;;;24.07;73.21
18819;BME280;9537;45.594;9.294;2022-07-29T05:46:17;99585.16;;;24.07;72.65
18819;BME280;9537;45.594;9.294;2022-07-29T05:47:18;99589.19;;;24.09;72.14
18819;BME280;9537;45.594;9.294;2022-07-29T05:48:20;99584.88;;;24.08;71.98
18819;BME280;9537;45.594;9.294;2022-07-29T05:49:21;99578.13;;;24.11;71.77
18819;BME280;9537;45.594;9.294;2022-07-29T05:50:23;99584.88;;;24.13;69.96
18819;BME280;9537;45.594;9.294;2022-07-29T05:51:25;99585.44;;;24.15;69.69
18819;BME280;9537;45.594;9.294;2022-07-29T05:52:27;99582.22;;;24.18;68.67
18819;BME280;9537;45.594;9.294;2022-07-29T05:53:27;99582.75;;;24.20;67.95
18819;BME280;9537;45.594;9.294;2022-07-29T05:54:32;99581.41;;;24.23;66.92
18819;BME280;9537;45.594;9.294;2022-07-29T05:55:33;99584.38;;;24.26;66.70
18819;BME280;9537;45.594;9.294;2022-07-29T05:56:35;99583.03;;;24.29;65.66
18819;BME280;9537;45.594;9.294;2022-07-29T05:57:36;99590.88;;;24.31;65.32
18819;BME280;9537;45.594;9.294;2022-07-29T05:58:38;99591.97;;;24.35;64.92
18819;BME280;9537;45.594;9.294;2022-07-29T05:59:39;99594.13;;;24.38;64.89
18819;BME280;9537;45.594;9.294;2022-07-29T06:00:41;99591.75;;;24.41;64.83